createdAt,value
2019-05-14T00:02:12.469Z,1.33
2019-05-14T00:04:42.615Z,1.33
2019-05-14T00:07:12.422Z,1.40
2019-05-14T00:09:42.648Z,1.10
2019-05-14T00:12:12.283Z,1.17
2019-05-14T00:14:43.819Z,1.27
2019-05-14T00:17:13.117Z,1.27
2019-05-14T00:19:42.642Z,1.20
2019-05-14T00:22:12.196Z,1.20
2019-05-14T00:24:42.001Z,1.33
2019-05-14T00:27:12.262Z,1.70
2019-05-14T00:29:42.063Z,1.40
2019-05-14T00:32:11.809Z,1.20
2019-05-14T00:34:42.502Z,1.37
2019-05-14T00:37:12.292Z,1.60
2019-05-14T00:39:41.920Z,1.30
2019-05-14T00:42:12.570Z,1.27
2019-05-14T00:44:53.700Z,1.30
2019-05-14T00:47:13.819Z,1.37
2019-05-14T00:49:43.365Z,1.77
2019-05-14T00:52:13.024Z,1.40
2019-05-14T00:54:42.830Z,1.30
2019-05-14T00:57:12.415Z,1.00
2019-05-14T00:59:42.023Z,1.20
2019-05-14T01:02:11.798Z,1.10
2019-05-14T01:04:42.822Z,1.30
2019-05-14T01:07:12.668Z,1.43
2019-05-14T01:09:43.259Z,1.37
2019-05-14T01:12:12.808Z,1.70
2019-05-14T01:14:42.704Z,1.53
2019-05-14T01:17:12.291Z,1.80
2019-05-14T01:19:42.635Z,1.57
2019-05-14T01:22:12.715Z,1.40
2019-05-14T01:24:42.445Z,1.27
2019-05-14T01:27:12.566Z,1.70
2019-05-14T01:29:42.738Z,1.47
2019-05-14T01:32:12.854Z,1.50
2019-05-14T01:34:42.861Z,1.50
2019-05-14T01:37:12.393Z,1.50
2019-05-14T01:39:42.180Z,2.10
2019-05-14T01:42:12.631Z,1.90
2019-05-14T01:44:42.188Z,1.97
2019-05-14T01:47:12.736Z,2.30
2019-05-14T01:49:42.863Z,2.10
2019-05-14T01:52:12.632Z,1.37
2019-05-14T01:54:42.815Z,1.67
2019-05-14T01:57:12.477Z,1.60
2019-05-14T01:59:42.942Z,1.80
2019-05-14T02:02:12.656Z,1.90
2019-05-14T02:04:42.956Z,1.60
2019-05-14T02:07:15.905Z,2.00
2019-05-14T02:09:44.116Z,1.27
2019-05-14T02:12:13.670Z,1.57
2019-05-14T02:14:43.327Z,1.80
2019-05-14T02:17:12.909Z,1.70
2019-05-14T02:19:42.813Z,1.80
2019-05-14T02:22:12.431Z,1.60
2019-05-14T02:24:42.036Z,1.70
2019-05-14T02:27:12.506Z,1.77
2019-05-14T02:29:42.203Z,1.77
2019-05-14T02:32:11.746Z,1.87
2019-05-14T02:34:41.279Z,2.00
2019-05-14T02:37:10.815Z,1.67
2019-05-14T02:39:41.446Z,2.03
2019-05-14T02:42:11.182Z,1.70
2019-05-14T02:44:41.210Z,2.00
2019-05-14T02:47:10.829Z,1.80
2019-05-14T02:49:40.435Z,1.60
2019-05-14T02:52:10.468Z,1.73
2019-05-14T02:54:40.777Z,1.70
2019-05-14T02:57:10.913Z,2.20
2019-05-14T02:59:40.744Z,1.77
2019-05-14T03:02:10.583Z,1.93
2019-05-14T03:04:40.188Z,2.40
2019-05-14T03:07:11.096Z,1.67
2019-05-14T03:09:40.880Z,1.97
2019-05-14T03:12:10.616Z,1.40
2019-05-14T03:14:40.429Z,2.20
2019-05-14T03:17:10.818Z,2.30
2019-05-14T03:19:41.195Z,2.27
2019-05-14T03:22:10.871Z,2.20
2019-05-14T03:24:40.422Z,2.20
2019-05-14T03:27:10.234Z,1.87
2019-05-14T03:29:40.490Z,2.40
2019-05-14T03:32:12.616Z,2.40
2019-05-14T03:34:43.659Z,2.37
2019-05-14T03:37:14.180Z,2.60
2019-05-14T03:39:44.067Z,2.73
2019-05-14T03:42:13.581Z,2.47
2019-05-14T03:44:43.295Z,2.13
2019-05-14T03:47:12.835Z,2.10
2019-05-14T03:49:42.385Z,2.40
2019-05-14T03:52:11.918Z,2.40
2019-05-14T03:54:42.006Z,2.40
2019-05-14T03:57:11.537Z,2.00
2019-05-14T03:59:41.202Z,2.40
2019-05-14T04:02:11.302Z,3.03
2019-05-14T04:04:41.140Z,2.57
2019-05-14T04:07:11.652Z,2.93
2019-05-14T04:09:43.682Z,3.27
2019-05-14T04:12:14.350Z,3.60
2019-05-14T04:14:46.398Z,3.40
2019-05-14T04:17:30.873Z,2.93
2019-05-14T04:19:50.645Z,2.80
2019-05-14T04:22:23.418Z,3.07
2019-05-14T04:24:59.437Z,2.87
2019-05-14T04:27:30.347Z,3.37
2019-05-14T04:30:02.021Z,3.63
2019-05-14T04:32:32.683Z,3.50
2019-05-14T04:35:03.201Z,3.90
2019-05-14T04:37:32.820Z,3.30
2019-05-14T04:40:02.427Z,3.30
2019-05-14T04:42:32.226Z,3.97
2019-05-14T04:45:05.501Z,4.57
2019-05-14T04:47:37.203Z,3.90
2019-05-14T04:50:10.253Z,3.80
2019-05-14T04:52:40.334Z,4.07
2019-05-14T04:55:09.990Z,3.83
2019-05-14T04:57:39.884Z,4.53
2019-05-14T05:00:12.134Z,4.47
2019-05-14T05:02:41.156Z,5.00
2019-05-14T05:05:10.875Z,4.57
2019-05-14T05:07:42.991Z,4.60
2019-05-14T05:10:12.843Z,4.30
2019-05-14T05:12:42.430Z,5.03
2019-05-14T05:15:12.126Z,5.07
2019-05-14T05:17:48.243Z,4.30
2019-05-14T05:20:14.350Z,4.37
2019-05-14T05:22:43.924Z,4.10
2019-05-14T05:25:13.757Z,4.60
2019-05-14T05:27:43.341Z,3.93
2019-05-14T05:30:13.300Z,3.83
2019-05-14T05:32:42.819Z,3.83
2019-05-14T05:35:12.977Z,4.00
2019-05-14T05:37:42.505Z,3.90
2019-05-14T05:40:12.772Z,3.60
2019-05-14T05:42:42.273Z,3.33
2019-05-14T05:45:12.256Z,3.57
2019-05-14T05:47:54.525Z,4.20
2019-05-14T05:50:13.457Z,4.50
2019-05-14T05:52:43.091Z,4.27
2019-05-14T05:55:12.967Z,4.23
2019-05-14T05:57:42.504Z,4.87
2019-05-14T06:00:12.584Z,4.07
2019-05-14T06:02:42.181Z,5.20
2019-05-14T06:05:11.726Z,4.67
2019-05-14T06:07:41.238Z,4.73
2019-05-14T06:10:10.969Z,4.70
2019-05-14T06:12:40.547Z,4.50
2019-05-14T06:15:14.308Z,4.70
2019-05-14T06:17:43.867Z,4.17
2019-05-14T06:20:13.475Z,4.00
2019-05-14T06:22:43.011Z,4.23
2019-05-14T06:25:12.686Z,4.87
2019-05-14T06:27:42.244Z,5.30
2019-05-14T06:30:12.054Z,4.87
2019-05-14T06:32:41.652Z,4.77
2019-05-14T06:35:11.650Z,4.57
2019-05-14T06:37:41.214Z,4.73
2019-05-14T06:40:11.129Z,5.07
2019-05-14T06:42:40.674Z,4.17
2019-05-14T06:45:11.771Z,4.80
2019-05-14T06:47:41.342Z,5.07
2019-05-14T06:50:11.146Z,4.83
2019-05-14T06:52:40.684Z,4.37
2019-05-14T06:55:10.753Z,4.67
2019-05-14T06:57:41.296Z,4.73
2019-05-14T07:00:12.160Z,5.20
2019-05-14T07:02:44.031Z,4.70
2019-05-14T07:05:14.185Z,4.50
2019-05-14T07:07:43.880Z,3.93
2019-05-14T07:10:13.741Z,5.07
2019-05-14T07:12:43.298Z,4.80
2019-05-14T07:15:14.580Z,4.73
2019-05-14T07:17:44.199Z,4.87
2019-05-14T07:20:14.307Z,4.83
2019-05-14T07:22:43.931Z,4.20
2019-05-14T07:25:13.625Z,4.60
2019-05-14T07:27:43.250Z,4.40
2019-05-14T07:30:13.413Z,4.33
2019-05-14T07:32:43.164Z,5.77
2019-05-14T07:35:13.248Z,4.90
2019-05-14T07:37:42.796Z,4.57
2019-05-14T07:40:12.726Z,4.50
2019-05-14T07:42:42.316Z,4.90
2019-05-14T07:45:12.515Z,5.10
2019-05-14T07:47:42.162Z,8.50
2019-05-14T07:50:12.432Z,5.03
2019-05-14T07:52:45.795Z,5.20
2019-05-14T07:55:13.521Z,4.63
2019-05-14T07:57:43.092Z,4.57
2019-05-14T08:00:13.753Z,4.80
2019-05-14T08:02:43.428Z,98.07
2019-05-14T08:05:13.548Z,366.73
2019-05-14T08:07:43.237Z,745.40
2019-05-14T08:10:13.194Z,5.07
2019-05-14T08:12:42.734Z,4.10
2019-05-14T08:15:17.777Z,4.40
2019-05-14T08:17:44.274Z,4.37
2019-05-14T08:20:14.469Z,4.20
2019-05-14T08:22:44.082Z,4.53
2019-05-14T08:25:14.075Z,4.60
2019-05-14T08:27:43.609Z,3.90
2019-05-14T08:30:16.070Z,3.80
2019-05-14T08:32:45.602Z,3.47
2019-05-14T08:35:15.158Z,3.40
2019-05-14T08:37:44.730Z,3.33
2019-05-14T08:40:16.371Z,3.70
2019-05-14T08:42:46.435Z,3.90
2019-05-14T08:45:18.848Z,3.80
2019-05-14T08:47:48.410Z,4.37
2019-05-14T08:50:20.066Z,4.67
2019-05-14T08:52:49.612Z,3.73
2019-05-14T08:55:19.193Z,3.63
2019-05-14T08:57:49.128Z,3.90
2019-05-14T09:00:19.473Z,4.03
2019-05-14T09:02:49.022Z,3.57
2019-05-14T09:05:18.643Z,3.23
2019-05-14T09:07:48.997Z,3.30
2019-05-14T09:10:19.428Z,3.70
2019-05-14T09:12:49.270Z,3.07
2019-05-14T09:15:19.114Z,3.30
2019-05-14T09:17:48.876Z,3.07
2019-05-14T09:20:18.967Z,3.37
2019-05-14T09:22:49.175Z,3.43
2019-05-14T09:25:19.128Z,3.33
2019-05-14T09:27:49.565Z,3.10
2019-05-14T09:30:19.396Z,4.13
2019-05-14T09:32:49.523Z,3.03
2019-05-14T09:35:19.200Z,3.17
2019-05-14T09:37:51.381Z,3.30
2019-05-14T09:40:20.126Z,3.80
2019-05-14T09:42:50.095Z,3.40
2019-05-14T09:45:19.936Z,2.90
2019-05-14T09:47:50.754Z,3.00
2019-05-14T09:50:23.385Z,3.00
2019-05-14T09:52:52.095Z,3.60
2019-05-14T09:55:21.738Z,3.70
2019-05-14T09:57:51.326Z,3.10
2019-05-14T10:00:21.761Z,3.13
2019-05-14T10:02:51.307Z,3.27
2019-05-14T10:05:21.122Z,3.40
2019-05-14T10:07:50.685Z,3.20
2019-05-14T10:10:20.304Z,2.20
2019-05-14T10:12:54.038Z,3.07
2019-05-14T10:15:21.248Z,2.60
2019-05-14T10:17:50.780Z,2.70
2019-05-14T10:20:36.423Z,2.67
2019-05-14T10:22:52.325Z,3.57
2019-05-14T10:25:23.086Z,2.43
2019-05-14T10:27:52.775Z,2.40
2019-05-14T10:30:25.003Z,2.43
2019-05-14T10:32:54.547Z,2.27
2019-05-14T10:35:24.118Z,2.60
2019-05-14T10:37:54.460Z,3.47
2019-05-14T10:40:24.186Z,3.20
2019-05-14T10:42:53.764Z,2.93
2019-05-14T10:45:23.502Z,2.60
2019-05-14T10:47:53.061Z,2.40
2019-05-14T10:50:22.986Z,2.70
2019-05-14T10:52:52.524Z,2.97
2019-05-14T10:55:22.109Z,3.07
2019-05-14T10:57:54.394Z,2.40
2019-05-14T11:00:23.362Z,2.30
2019-05-14T11:02:52.942Z,2.10
2019-05-14T11:05:22.878Z,1.93
2019-05-14T11:07:52.534Z,2.37
2019-05-14T11:10:22.396Z,1.80
2019-05-14T11:12:55.043Z,2.50
2019-05-14T11:15:24.011Z,2.57
2019-05-14T11:17:53.625Z,1.90
2019-05-14T11:20:23.607Z,1.77
2019-05-14T11:22:53.449Z,2.13
2019-05-14T11:25:23.003Z,2.57
2019-05-14T11:27:55.652Z,2.03
2019-05-14T11:30:28.586Z,0.50
2019-05-14T11:32:58.445Z,0.13
2019-05-14T11:35:28.842Z,0.10
2019-05-14T11:37:58.963Z,0.10
2019-05-14T11:40:29.323Z,0.20
2019-05-14T11:42:59.403Z,0.10
2019-05-14T11:45:29.521Z,0.10
2019-05-14T11:47:59.071Z,0.10
2019-05-14T11:50:28.930Z,0.10
2019-05-14T11:52:58.784Z,0.10
2019-05-14T11:55:28.344Z,0.20
2019-05-14T11:57:58.386Z,0.20
2019-05-14T12:00:29.508Z,0.10
2019-05-14T12:02:59.207Z,0.10
2019-05-14T12:05:32.334Z,0.10
2019-05-14T12:08:01.907Z,0.17
2019-05-14T12:10:31.739Z,0.10
2019-05-14T12:13:01.403Z,0.20
2019-05-14T12:15:31.264Z,0.20
2019-05-14T12:18:01.816Z,0.20
2019-05-14T12:20:31.365Z,0.20
2019-05-14T12:23:00.955Z,0.10
2019-05-14T12:25:30.810Z,0.13
2019-05-14T12:28:00.363Z,0.20
2019-05-14T12:30:29.980Z,0.17
2019-05-14T12:32:59.496Z,0.20
2019-05-14T12:35:30.000Z,0.20
2019-05-14T12:37:59.919Z,0.20
2019-05-14T12:40:29.477Z,0.20
2019-05-14T12:42:59.470Z,0.13
2019-05-14T12:45:33.752Z,0.10
2019-05-14T12:48:03.573Z,1.03
2019-05-14T12:50:33.275Z,1.00
2019-05-14T12:53:02.828Z,1.00
2019-05-14T12:55:32.535Z,0.90
2019-05-14T12:58:02.117Z,0.90
2019-05-14T13:00:33.481Z,1.00
2019-05-14T13:03:03.124Z,0.90
2019-05-14T13:05:33.057Z,1.00
2019-05-14T13:08:03.218Z,0.90
2019-05-14T13:10:32.783Z,1.00
2019-05-14T13:13:04.141Z,1.00
2019-05-14T13:15:35.391Z,1.03
2019-05-14T13:18:05.253Z,1.00
2019-05-14T13:20:34.786Z,1.00
2019-05-14T13:23:04.395Z,1.00
2019-05-14T13:25:33.974Z,1.00
2019-05-14T13:28:03.575Z,0.90
2019-05-14T13:30:33.131Z,0.90
2019-05-14T13:33:02.696Z,1.00
2019-05-14T13:35:32.258Z,1.00
2019-05-14T13:38:01.829Z,1.00
2019-05-14T13:40:31.444Z,0.97
2019-05-14T13:43:02.674Z,1.00
2019-05-14T13:45:32.242Z,1.10
2019-05-14T13:48:01.804Z,1.10
2019-05-14T13:50:31.358Z,1.00
2019-05-14T13:53:06.880Z,1.10
2019-05-14T13:55:32.231Z,1.00
2019-05-14T13:58:01.773Z,1.10
2019-05-14T14:00:31.421Z,1.00
2019-05-14T14:03:00.970Z,1.13
2019-05-14T14:05:30.535Z,1.00
2019-05-14T14:08:00.469Z,1.00
2019-05-14T14:10:35.400Z,1.10
2019-05-14T14:13:01.437Z,1.10
2019-05-14T14:15:31.074Z,1.00
2019-05-14T14:18:00.669Z,1.20
2019-05-14T14:20:30.246Z,1.10
2019-05-14T14:23:09.170Z,1.10
2019-05-14T14:25:31.113Z,1.10
2019-05-14T14:28:00.640Z,1.10
2019-05-14T14:30:30.422Z,1.17
2019-05-14T14:33:00.030Z,1.10
2019-05-14T14:35:30.454Z,1.10
2019-05-14T14:38:00.186Z,1.10
2019-05-14T14:40:30.347Z,2.90
2019-05-14T14:43:00.134Z,3.00
2019-05-14T14:45:29.677Z,2.63
2019-05-14T14:48:01.341Z,2.77
2019-05-14T14:50:30.900Z,2.30
2019-05-14T14:53:00.460Z,2.60
2019-05-14T14:55:30.754Z,2.60
2019-05-14T14:58:00.534Z,2.70
2019-05-14T15:00:30.064Z,2.47
2019-05-14T15:02:59.933Z,2.60
2019-05-14T15:05:29.890Z,2.80
2019-05-14T15:08:00.256Z,2.77
2019-05-14T15:10:30.015Z,2.80
2019-05-14T15:12:59.584Z,2.80
2019-05-14T15:15:32.214Z,2.43
2019-05-14T15:18:00.486Z,2.63
2019-05-14T15:20:30.048Z,2.67
2019-05-14T15:23:00.093Z,2.77
2019-05-14T15:25:29.860Z,2.57
2019-05-14T15:27:59.428Z,2.20
2019-05-14T15:30:29.047Z,2.60
2019-05-14T15:32:59.840Z,2.67
2019-05-14T15:35:29.544Z,2.50
2019-05-14T15:37:59.163Z,1.50
2019-05-14T15:40:29.123Z,1.33
2019-05-14T15:43:01.906Z,2.40
2019-05-14T15:45:30.098Z,2.00
2019-05-14T15:48:03.716Z,1.70
2019-05-14T15:50:32.828Z,1.53
2019-05-14T15:53:02.747Z,1.63
2019-05-14T15:55:32.727Z,1.80
2019-05-14T15:58:02.297Z,1.20
2019-05-14T16:00:31.903Z,1.83
2019-05-14T16:03:01.442Z,1.50
2019-05-14T16:05:31.068Z,1.70
2019-05-14T16:08:00.616Z,1.70
2019-05-14T16:10:31.333Z,1.67
2019-05-14T16:13:01.054Z,1.33
2019-05-14T16:15:30.904Z,1.53
2019-05-14T16:18:08.785Z,1.13
2019-05-14T16:20:31.813Z,1.50
2019-05-14T16:23:01.650Z,1.97
2019-05-14T16:25:31.548Z,1.50
2019-05-14T16:28:01.138Z,1.87
2019-05-14T16:30:30.738Z,1.80
2019-05-14T16:33:00.291Z,1.77
2019-05-14T16:35:30.844Z,1.63
2019-05-14T16:38:00.595Z,1.57
2019-05-14T16:40:30.542Z,1.60
2019-05-14T16:43:00.589Z,1.97
2019-05-14T16:45:30.127Z,1.53
2019-05-14T16:47:59.972Z,1.67
2019-05-14T16:50:29.548Z,1.97
2019-05-14T16:52:59.168Z,1.70
2019-05-14T16:55:30.595Z,1.37
2019-05-14T16:58:00.167Z,1.33
2019-05-14T17:00:29.905Z,1.23
2019-05-14T17:02:59.458Z,1.23
2019-05-14T17:05:30.190Z,1.00
2019-05-14T17:07:59.945Z,1.30
2019-05-14T17:10:29.528Z,1.10
2019-05-14T17:13:01.750Z,1.10
2019-05-14T17:15:30.421Z,2.10
2019-05-14T17:18:00.011Z,1.57
2019-05-14T17:20:29.646Z,1.47
2019-05-14T17:22:59.484Z,1.20
2019-05-14T17:25:30.537Z,1.80
2019-05-14T17:28:00.187Z,1.37
2019-05-14T17:30:30.480Z,1.67
2019-05-14T17:33:00.897Z,1.20
2019-05-14T17:35:32.447Z,1.50
2019-05-14T17:38:04.840Z,1.00
2019-05-14T17:40:35.314Z,1.07
2019-05-14T17:43:04.918Z,2.77
2019-05-14T17:45:35.473Z,1.13
2019-05-14T17:48:06.085Z,0.87
2019-05-14T17:50:38.200Z,1.43
2019-05-14T17:53:09.549Z,0.90
2019-05-14T17:55:47.070Z,1.13
2019-05-14T17:58:13.164Z,0.90
2019-05-14T18:00:41.065Z,1.03
2019-05-14T18:03:10.637Z,1.10
2019-05-14T18:05:40.232Z,1.10
2019-05-14T18:08:09.766Z,1.20
2019-05-14T18:10:39.403Z,1.60
2019-05-14T18:13:09.570Z,1.17
2019-05-14T18:15:39.584Z,1.33
2019-05-14T18:18:09.410Z,1.00
2019-05-14T18:20:39.647Z,1.17
2019-05-14T18:23:11.838Z,0.90
2019-05-14T18:25:42.718Z,1.00
2019-05-14T18:28:13.361Z,1.27
2019-05-14T18:30:44.493Z,1.80
2019-05-14T18:33:15.449Z,1.60
2019-05-14T18:35:48.375Z,1.10
2019-05-14T18:38:19.796Z,1.60
2019-05-14T18:40:49.602Z,1.90
2019-05-14T18:43:20.823Z,1.73
2019-05-14T18:45:51.692Z,2.30
2019-05-14T18:48:22.353Z,4.53
2019-05-14T18:50:53.171Z,4.10
2019-05-14T18:53:22.829Z,2.87
2019-05-14T18:55:52.435Z,1.80
2019-05-14T18:58:23.188Z,1.77
2019-05-14T19:00:54.143Z,2.33
2019-05-14T19:03:23.838Z,1.70
2019-05-14T19:05:58.476Z,1.20
2019-05-14T19:08:28.854Z,1.50
2019-05-14T19:11:00.353Z,2.67
2019-05-14T19:13:32.268Z,2.73
2019-05-14T19:16:01.954Z,7.03
2019-05-14T19:18:33.352Z,9.00
2019-05-14T19:21:04.451Z,10.53
2019-05-14T19:23:35.360Z,8.50
2019-05-14T19:26:09.390Z,10.40
2019-05-14T19:28:40.037Z,3.50
2019-05-14T19:31:12.980Z,4.03
2019-05-14T19:33:44.746Z,999.90
2019-05-14T19:36:16.143Z,999.90
2019-05-14T19:38:48.123Z,999.90
2019-05-14T19:41:22.858Z,999.90
2019-05-14T19:43:51.204Z,999.90
2019-05-14T19:46:21.397Z,999.90
2019-05-14T19:48:52.559Z,999.90
2019-05-14T19:51:23.055Z,999.90
2019-05-14T19:53:53.458Z,999.90
2019-05-14T19:56:24.205Z,999.90
2019-05-14T19:58:55.791Z,999.90
2019-05-14T20:01:28.769Z,4.60
2019-05-14T20:03:59.467Z,4.20
2019-05-14T20:06:30.340Z,3.57
2019-05-14T20:09:01.308Z,3.60
2019-05-14T20:11:32.584Z,3.03
2019-05-14T20:14:04.058Z,3.63
2019-05-14T20:16:35.183Z,10.40
2019-05-14T20:19:08.692Z,5.27
2019-05-14T20:21:39.198Z,3.00
2019-05-14T20:24:09.928Z,3.17
2019-05-14T20:26:39.659Z,3.03
2019-05-14T20:29:09.730Z,2.93
2019-05-14T20:31:40.302Z,3.33
2019-05-14T20:34:11.236Z,2.50
2019-05-14T20:36:42.531Z,1.80
2019-05-14T20:39:13.101Z,2.47
2019-05-14T20:41:43.377Z,2.10
2019-05-14T20:44:14.086Z,1.80
2019-05-14T20:46:45.095Z,2.20
2019-05-14T20:49:18.903Z,2.13
2019-05-14T20:51:49.386Z,2.10
2019-05-14T20:54:20.723Z,1.80
2019-05-14T20:56:52.204Z,1.77
2019-05-14T20:59:23.233Z,1.90
2019-05-14T21:01:54.312Z,2.30
2019-05-14T21:04:25.404Z,1.97
2019-05-14T21:06:58.617Z,1.80
2019-05-14T21:09:29.026Z,2.03
2019-05-14T21:11:59.864Z,1.73
2019-05-14T21:14:31.668Z,1.90
2019-05-14T21:17:03.009Z,2.30
2019-05-14T21:19:34.279Z,1.73
2019-05-14T21:22:08.220Z,2.20
2019-05-14T21:24:39.217Z,2.70
2019-05-14T21:27:10.950Z,2.00
2019-05-14T21:29:42.239Z,1.90
2019-05-14T21:32:13.185Z,2.17
2019-05-14T21:34:44.350Z,2.03
2019-05-14T21:37:15.706Z,2.23
2019-05-14T21:39:46.249Z,1.87
2019-05-14T21:42:19.510Z,2.53
2019-05-14T21:44:51.665Z,1.90
2019-05-14T21:47:23.260Z,1.70
2019-05-14T21:49:54.345Z,2.10
2019-05-14T21:52:25.349Z,1.87
2019-05-14T21:54:58.634Z,1.90
2019-05-14T21:57:29.755Z,2.07
2019-05-14T22:00:00.099Z,2.23
2019-05-14T22:02:31.454Z,1.90
2019-05-14T22:05:02.034Z,2.30
2019-05-14T22:07:33.209Z,2.17
2019-05-14T22:10:08.037Z,1.80
2019-05-14T22:12:39.658Z,2.07
2019-05-14T22:15:11.004Z,2.80
2019-05-14T22:17:40.603Z,2.30
2019-05-14T22:20:12.119Z,1.97
2019-05-14T22:22:41.809Z,2.17
2019-05-14T22:25:11.731Z,2.30
2019-05-14T22:27:41.394Z,1.83
2019-05-14T22:30:12.587Z,2.50
2019-05-14T22:32:42.172Z,2.70
2019-05-14T22:35:11.979Z,2.17
2019-05-14T22:37:41.597Z,2.13
2019-05-14T22:40:11.831Z,3.00
2019-05-14T22:42:41.452Z,3.13
2019-05-14T22:45:11.457Z,2.67
2019-05-14T22:47:41.022Z,2.80
2019-05-14T22:50:11.142Z,3.43
2019-05-14T22:52:40.784Z,2.63
2019-05-14T22:55:10.629Z,2.70
2019-05-14T22:57:40.269Z,2.50
2019-05-14T23:00:10.941Z,2.83
2019-05-14T23:02:40.661Z,3.10
2019-05-14T23:05:11.063Z,3.40
2019-05-14T23:07:40.784Z,4.63
2019-05-14T23:10:10.591Z,4.03
2019-05-14T23:12:40.217Z,3.37
2019-05-14T23:15:10.117Z,3.10
2019-05-14T23:17:40.671Z,3.10
2019-05-14T23:20:10.327Z,3.50
2019-05-14T23:22:39.902Z,2.93
2019-05-14T23:25:09.628Z,2.70
2019-05-14T23:27:39.368Z,3.03
2019-05-14T23:30:10.071Z,3.50
2019-05-14T23:32:39.675Z,2.90
2019-05-14T23:35:10.131Z,3.40
2019-05-14T23:37:39.891Z,2.67
2019-05-14T23:40:09.687Z,3.13
2019-05-14T23:42:39.564Z,3.10
2019-05-14T23:45:09.471Z,2.77
2019-05-14T23:47:39.038Z,2.60
2019-05-14T23:50:08.766Z,2.70
2019-05-14T23:52:38.961Z,3.10
2019-05-14T23:55:09.028Z,2.93
2019-05-14T23:57:38.658Z,3.53
